createdAt,value
2022-10-29T00:02:59.072Z,17.88
2022-10-29T00:08:01.620Z,17.93
2022-10-29T00:13:07.047Z,17.86
2022-10-29T00:18:09.653Z,17.9
2022-10-29T00:23:12.497Z,17.85
2022-10-29T00:28:15.411Z,17.8
2022-10-29T00:33:21.091Z,17.83
2022-10-29T00:38:20.868Z,17.84
2022-10-29T00:43:23.416Z,17.87
2022-10-29T00:53:28.866Z,17.74
2022-10-29T00:58:31.603Z,17.6
2022-10-29T01:08:36.485Z,17.54
2022-10-29T01:18:41.704Z,17.45
2022-10-29T01:28:47.641Z,17.24
2022-10-29T01:33:50.143Z,17.23
2022-10-29T01:38:52.990Z,17.19
2022-10-29T01:43:58.550Z,17.1
2022-10-29T01:59:07.791Z,16.96
2022-10-29T02:04:09.946Z,16.92
2022-10-29T02:14:18.068Z,16.92
2022-10-29T02:19:21.047Z,16.88
2022-10-29T02:24:23.717Z,16.89
2022-10-29T02:34:29.483Z,16.82
2022-10-29T02:39:31.960Z,16.84
2022-10-29T02:49:37.393Z,16.82
2022-10-29T02:54:39.883Z,16.79
2022-10-29T02:59:42.854Z,16.83
2022-10-29T03:09:51.101Z,16.62
2022-10-29T03:19:56.575Z,16.65
2022-10-29T03:25:04.094Z,16.59
2022-10-29T03:35:04.452Z,16.49
2022-10-29T03:40:07.090Z,16.43
2022-10-29T03:45:13.266Z,16.34
2022-10-29T03:50:15.576Z,16.37
2022-10-29T03:55:18.246Z,16.27
2022-10-29T04:00:20.872Z,16.19
2022-10-29T04:05:23.311Z,16.07
2022-10-29T04:15:29.172Z,16.01
2022-10-29T04:20:45.520Z,16
2022-10-29T04:35:42.595Z,15.92
2022-10-29T04:40:45.166Z,15.91
2022-10-29T04:50:50.416Z,15.77
2022-10-29T04:55:53.147Z,15.68
2022-10-29T05:00:55.801Z,15.71
2022-10-29T05:05:58.214Z,15.69
2022-10-29T05:16:03.283Z,15.63
2022-10-29T05:21:05.853Z,15.53
2022-10-29T05:31:13.890Z,15.4
2022-10-29T05:36:16.539Z,15.36
2022-10-29T05:41:19.059Z,15.23
2022-10-29T05:46:24.724Z,15.23
2022-10-29T05:51:27.415Z,15.26
2022-10-29T05:56:32.752Z,15.22
2022-10-29T06:01:35.345Z,15.13
2022-10-29T06:06:40.641Z,15.05
2022-10-29T06:11:43.361Z,14.94
2022-10-29T06:16:45.858Z,14.87
2022-10-29T06:21:53.216Z,14.91
2022-10-29T06:26:53.841Z,14.96
2022-10-29T06:31:59.197Z,15.16
2022-10-29T06:37:02.051Z,15.34
2022-10-29T06:42:04.616Z,15.47
2022-10-29T06:47:07.403Z,15.57
2022-10-29T06:52:10.307Z,15.78
2022-10-29T06:57:13.158Z,15.98
2022-10-29T07:02:15.876Z,16.12
2022-10-29T07:07:21.378Z,16.31
2022-10-29T07:12:24.038Z,16.43
2022-10-29T07:17:26.685Z,16.54
2022-10-29T07:22:33.981Z,16.72
2022-10-29T07:27:32.442Z,16.89
2022-10-29T07:32:35.574Z,17.02
2022-10-29T07:37:41.838Z,17.16
2022-10-29T07:47:47.238Z,17.6
2022-10-29T07:52:49.941Z,17.65
2022-10-29T07:57:55.687Z,17.59
2022-10-29T08:02:58.152Z,17.82
2022-10-29T08:08:03.710Z,17.93
2022-10-29T08:13:06.306Z,18.07
2022-10-29T08:23:11.666Z,18.05
2022-10-29T08:28:14.415Z,18.36
2022-10-29T08:33:16.905Z,18.6
2022-10-29T08:38:19.409Z,18.82
2022-10-29T08:54:30.849Z,19.54
2022-10-29T08:59:25.722Z,19.66
2022-10-29T09:04:28.224Z,19.57
2022-10-29T09:09:30.899Z,19.44
2022-10-29T09:19:36.201Z,20.21
2022-10-29T09:24:38.888Z,20.37
2022-10-29T09:29:41.680Z,20.88
2022-10-29T09:34:44.608Z,20.83
2022-10-29T09:39:47.329Z,21.21
2022-10-29T09:49:52.534Z,21.02
2022-10-29T09:59:57.848Z,20.9
2022-10-29T10:05:00.507Z,21.08
2022-10-29T10:10:03.131Z,21.06
2022-10-29T10:15:11.055Z,21.21
2022-10-29T10:20:14.030Z,21.59
2022-10-29T10:25:16.848Z,21.92
2022-10-29T10:30:19.397Z,21.52
2022-10-29T10:35:22.010Z,21.69
2022-10-29T10:45:27.349Z,21.57
2022-10-29T10:50:30.134Z,21.37
2022-10-29T11:00:35.421Z,21.45
2022-10-29T11:05:37.866Z,21.91
2022-10-29T11:15:43.557Z,21.85
2022-10-29T11:30:51.654Z,21.39
2022-10-29T11:35:54.966Z,21.21
2022-10-29T11:40:56.652Z,21.61
2022-10-29T11:51:04.858Z,21.78
2022-10-29T11:56:07.755Z,22.05
2022-10-29T12:11:16.117Z,22.49
2022-10-29T12:16:18.726Z,22.83
2022-10-29T12:21:21.238Z,22.44
2022-10-29T12:26:24.285Z,22.82
2022-10-29T12:31:32.732Z,23.09
2022-10-29T12:36:35.178Z,22.81
2022-10-29T12:41:37.933Z,22.84
2022-10-29T12:46:43.486Z,22.78
2022-10-29T12:56:50.274Z,22.4
2022-10-29T13:17:02.237Z,22.31
2022-10-29T13:22:07.752Z,22.16
2022-10-29T13:27:10.274Z,21.96
2022-10-29T13:32:12.715Z,22.03
2022-10-29T13:37:14.548Z,21.96
2022-10-29T13:47:20.143Z,21.97
2022-10-29T13:52:25.325Z,21.95
2022-10-29T13:57:28.086Z,21.95
2022-10-29T14:02:54.293Z,22.01
2022-10-29T14:07:57.370Z,21.93
2022-10-29T14:18:02.348Z,21.56
2022-10-29T14:23:04.789Z,21.46
2022-10-29T14:28:10.073Z,21.32
2022-10-29T14:33:12.753Z,21.28
2022-10-29T14:38:21.181Z,21.2
2022-10-29T14:43:23.974Z,21.28
2022-10-29T14:48:26.711Z,21.32
2022-10-29T15:03:34.847Z,21.03
2022-10-29T15:08:37.282Z,20.91
2022-10-29T15:19:38.281Z,20.68
2022-10-29T15:24:43.653Z,20.55
2022-10-29T15:29:46.313Z,20.39
2022-10-29T15:34:48.983Z,20.15
2022-10-29T15:39:51.543Z,20.05
2022-10-29T15:44:54.109Z,19.91
2022-10-29T15:49:56.823Z,19.79
2022-10-29T15:54:59.565Z,19.7
2022-10-29T16:05:04.732Z,19.64
2022-10-29T16:10:07.470Z,19.63
2022-10-29T16:25:15.513Z,19.53
2022-10-29T16:35:20.925Z,19.41
2022-10-29T16:40:26.388Z,19.31
2022-10-29T16:45:28.927Z,19.29
2022-10-29T16:50:31.467Z,19.22
2022-10-29T17:05:39.291Z,19
2022-10-29T17:20:53.405Z,18.98
2022-10-29T17:30:58.688Z,18.9
2022-10-29T17:36:01.581Z,18.81
2022-10-29T17:41:06.674Z,18.76
2022-10-29T17:46:12.007Z,18.74
2022-10-29T17:51:14.683Z,18.71
2022-10-29T18:01:20.165Z,18.53
2022-10-29T18:06:22.486Z,18.4
2022-10-29T18:11:25.771Z,18.33
2022-10-29T18:16:28.466Z,18.17
2022-10-29T18:21:33.767Z,18.16
2022-10-29T18:26:36.393Z,18.19
2022-10-29T18:31:38.965Z,18.15
2022-10-29T18:36:41.348Z,18.08
2022-10-29T18:41:44.143Z,18.06
2022-10-29T18:46:46.911Z,17.96
2022-10-29T18:51:49.725Z,17.91
2022-10-29T18:56:52.212Z,17.84
2022-10-29T19:01:54.974Z,17.89
2022-10-29T19:06:57.422Z,17.83
2022-10-29T19:12:00.103Z,17.84
2022-10-29T19:17:02.824Z,17.89
2022-10-29T19:22:05.598Z,17.88
2022-10-29T19:27:08.736Z,17.76
2022-10-29T19:32:11.385Z,17.73
2022-10-29T19:37:14.207Z,17.65
2022-10-29T19:47:19.588Z,17.4
2022-10-29T19:52:22.324Z,17.39
2022-10-29T19:57:24.194Z,17.29
2022-10-29T20:02:26.861Z,17.24
2022-10-29T20:07:29.705Z,17.23
2022-10-29T20:12:32.262Z,17.19
2022-10-29T20:17:35.078Z,17.3
2022-10-29T20:22:37.975Z,17.55
2022-10-29T20:27:40.713Z,17.49
2022-10-29T20:32:43.561Z,17.45
2022-10-29T20:42:49.457Z,17.5
2022-10-29T20:47:52.155Z,17.42
2022-10-29T21:03:02.941Z,17.37
2022-10-29T21:08:05.581Z,17.33
2022-10-29T21:13:08.210Z,17.32
2022-10-29T21:23:13.512Z,17.35
2022-10-29T21:33:21.351Z,17.21
2022-10-29T21:38:31.231Z,17.17
2022-10-29T21:43:34.020Z,17.12
2022-10-29T21:53:39.395Z,16.88
2022-10-29T21:58:42.068Z,16.8
2022-10-29T22:03:44.799Z,16.77
2022-10-29T22:08:47.527Z,16.73
2022-10-29T22:13:50.287Z,16.72
2022-10-29T22:18:52.851Z,16.73
2022-10-29T22:23:55.567Z,16.71
2022-10-29T22:34:03.537Z,16.71
2022-10-29T22:39:06.144Z,16.74
2022-10-29T22:49:11.628Z,16.65
2022-10-29T22:54:14.338Z,16.67
2022-10-29T22:59:16.951Z,16.64
2022-10-29T23:04:19.618Z,16.63
2022-10-29T23:14:28.349Z,16.64
2022-10-29T23:19:30.944Z,16.53
2022-10-29T23:24:33.485Z,16.44
2022-10-29T23:29:35.990Z,16.42
2022-10-29T23:34:38.764Z,16.41
2022-10-29T23:39:41.277Z,16.37
2022-10-29T23:44:44.017Z,16.31
2022-10-29T23:49:46.516Z,16.24
2022-10-29T23:54:49.039Z,16.18
2022-10-29T23:59:51.702Z,16.14
